sensor_id;sensor_type;location;lat;lon;timestamp;temperature;humidity
2861;DHT22;1438;50.922;6.704;2023-08-01T00:01:24;16.70;99.90
2861;DHT22;1438;50.922;6.704;2023-08-01T00:03:50;16.70;99.90
2861;DHT22;1438;50.922;6.704;2023-08-01T00:06:15;16.70;99.90
2861;DHT22;1438;50.922;6.704;2023-08-01T00:08:41;16.70;99.90
2861;DHT22;1438;50.922;6.704;2023-08-01T00:11:06;16.70;99.90
2861;DHT22;1438;50.922;6.704;2023-08-01T00:13:32;16.70;99.90
2861;DHT22;1438;50.922;6.704;2023-08-01T00:15:58;16.70;99.90
2861;DHT22;1438;50.922;6.704;2023-08-01T00:18:23;16.70;99.90
2861;DHT22;1438;50.922;6.704;2023-08-01T00:20:52;16.70;99.90
2861;DHT22;1438;50.922;6.704;2023-08-01T00:23:18;16.80;99.90
2861;DHT22;1438;50.922;6.704;2023-08-01T00:25:43;16.80;99.90
2861;DHT22;1438;50.922;6.704;2023-08-01T00:28:09;16.80;99.90
2861;DHT22;1438;50.922;6.704;2023-08-01T00:30:35;16.80;99.90
2861;DHT22;1438;50.922;6.704;2023-08-01T00:33:00;16.80;99.90
2861;DHT22;1438;50.922;6.704;2023-08-01T00:35:26;16.80;99.90
2861;DHT22;1438;50.922;6.704;2023-08-01T00:37:52;16.80;99.90
2861;DHT22;1438;50.922;6.704;2023-08-01T00:40:17;16.80;99.90
2861;DHT22;1438;50.922;6.704;2023-08-01T00:42:43;16.70;99.90
2861;DHT22;1438;50.922;6.704;2023-08-01T00:45:09;16.80;99.90
2861;DHT22;1438;50.922;6.704;2023-08-01T00:47:35;16.80;99.90
2861;DHT22;1438;50.922;6.704;2023-08-01T00:50:01;16.70;99.90
2861;DHT22;1438;50.922;6.704;2023-08-01T00:52:27;16.70;99.90
2861;DHT22;1438;50.922;6.704;2023-08-01T00:54:54;16.70;99.90
2861;DHT22;1438;50.922;6.704;2023-08-01T00:57:20;16.70;99.90
2861;DHT22;1438;50.922;6.704;2023-08-01T00:59:45;16.70;99.90
2861;DHT22;1438;50.922;6.704;2023-08-01T01:02:11;16.70;99.90
2861;DHT22;1438;50.922;6.704;2023-08-01T01:04:37;16.70;99.90
2861;DHT22;1438;50.922;6.704;2023-08-01T01:07:06;16.70;99.90
2861;DHT22;1438;50.922;6.704;2023-08-01T01:09:32;16.70;99.90
2861;DHT22;1438;50.922;6.704;2023-08-01T01:12:01;16.80;99.90
2861;DHT22;1438;50.922;6.704;2023-08-01T01:14:27;16.80;99.90
2861;DHT22;1438;50.922;6.704;2023-08-01T01:16:52;16.80;99.90
2861;DHT22;1438;50.922;6.704;2023-08-01T01:19:18;16.90;99.90
2861;DHT22;1438;50.922;6.704;2023-08-01T01:21:44;16.90;99.90
2861;DHT22;1438;50.922;6.704;2023-08-01T01:24:11;17.00;99.90
2861;DHT22;1438;50.922;6.704;2023-08-01T01:26:42;16.90;99.90
2861;DHT22;1438;50.922;6.704;2023-08-01T01:29:09;16.90;99.90
2861;DHT22;1438;50.922;6.704;2023-08-01T01:31:36;16.90;99.90
2861;DHT22;1438;50.922;6.704;2023-08-01T01:34:03;16.90;99.90
2861;DHT22;1438;50.922;6.704;2023-08-01T01:36:29;16.80;99.90
2861;DHT22;1438;50.922;6.704;2023-08-01T01:38:55;16.80;99.90
2861;DHT22;1438;50.922;6.704;2023-08-01T01:41:21;16.80;99.90
2861;DHT22;1438;50.922;6.704;2023-08-01T01:43:48;16.90;99.90
2861;DHT22;1438;50.922;6.704;2023-08-01T01:46:13;16.80;99.90
2861;DHT22;1438;50.922;6.704;2023-08-01T01:48:39;16.80;99.90
2861;DHT22;1438;50.922;6.704;2023-08-01T01:51:04;16.90;99.90
2861;DHT22;1438;50.922;6.704;2023-08-01T01:53:30;16.80;99.90
2861;DHT22;1438;50.922;6.704;2023-08-01T01:55:55;16.80;99.90
2861;DHT22;1438;50.922;6.704;2023-08-01T01:58:21;16.80;99.90
2861;DHT22;1438;50.922;6.704;2023-08-01T02:00:46;16.70;99.90
2861;DHT22;1438;50.922;6.704;2023-08-01T02:03:13;16.60;99.90
2861;DHT22;1438;50.922;6.704;2023-08-01T02:05:42;16.50;99.90
2861;DHT22;1438;50.922;6.704;2023-08-01T02:08:07;16.50;99.90
2861;DHT22;1438;50.922;6.704;2023-08-01T02:10:33;16.40;99.90
2861;DHT22;1438;50.922;6.704;2023-08-01T02:12:59;16.30;99.90
2861;DHT22;1438;50.922;6.704;2023-08-01T02:15:24;16.30;99.90
2861;DHT22;1438;50.922;6.704;2023-08-01T02:17:50;16.30;99.90
2861;DHT22;1438;50.922;6.704;2023-08-01T02:20:16;16.30;99.90
2861;DHT22;1438;50.922;6.704;2023-08-01T02:22:42;16.30;99.90
2861;DHT22;1438;50.922;6.704;2023-08-01T02:25:07;16.30;99.90
2861;DHT22;1438;50.922;6.704;2023-08-01T02:27:33;16.20;99.90
2861;DHT22;1438;50.922;6.704;2023-08-01T02:29:58;16.10;99.90
2861;DHT22;1438;50.922;6.704;2023-08-01T02:32:24;16.10;99.90
2861;DHT22;1438;50.922;6.704;2023-08-01T02:34:50;16.00;99.90
2861;DHT22;1438;50.922;6.704;2023-08-01T02:37:15;16.00;99.90
2861;DHT22;1438;50.922;6.704;2023-08-01T02:39:41;15.90;99.90
2861;DHT22;1438;50.922;6.704;2023-08-01T02:42:06;15.90;99.90
2861;DHT22;1438;50.922;6.704;2023-08-01T02:44:32;15.90;99.90
2861;DHT22;1438;50.922;6.704;2023-08-01T02:46:57;15.80;99.90
2861;DHT22;1438;50.922;6.704;2023-08-01T02:49:23;15.80;99.90
2861;DHT22;1438;50.922;6.704;2023-08-01T02:51:49;15.80;99.90
2861;DHT22;1438;50.922;6.704;2023-08-01T02:54:14;15.80;99.90
2861;DHT22;1438;50.922;6.704;2023-08-01T02:56:40;15.80;99.90
2861;DHT22;1438;50.922;6.704;2023-08-01T02:59:07;15.80;99.90
2861;DHT22;1438;50.922;6.704;2023-08-01T03:01:34;15.70;99.90
2861;DHT22;1438;50.922;6.704;2023-08-01T03:04:02;15.80;99.90
2861;DHT22;1438;50.922;6.704;2023-08-01T03:06:28;15.80;99.90
2861;DHT22;1438;50.922;6.704;2023-08-01T03:08:53;15.80;99.90
2861;DHT22;1438;50.922;6.704;2023-08-01T03:11:19;15.70;99.90
2861;DHT22;1438;50.922;6.704;2023-08-01T03:13:44;15.70;99.90
2861;DHT22;1438;50.922;6.704;2023-08-01T03:16:10;15.70;99.90
2861;DHT22;1438;50.922;6.704;2023-08-01T03:18:35;15.70;99.90
2861;DHT22;1438;50.922;6.704;2023-08-01T03:21:01;15.60;99.90
2861;DHT22;1438;50.922;6.704;2023-08-01T03:23:32;15.60;99.90
2861;DHT22;1438;50.922;6.704;2023-08-01T03:25:57;15.60;99.90
2861;DHT22;1438;50.922;6.704;2023-08-01T03:28:25;15.60;99.90
2861;DHT22;1438;50.922;6.704;2023-08-01T03:30:51;15.60;99.90
2861;DHT22;1438;50.922;6.704;2023-08-01T03:33:21;15.60;99.90
2861;DHT22;1438;50.922;6.704;2023-08-01T03:35:47;15.60;99.90
2861;DHT22;1438;50.922;6.704;2023-08-01T03:38:13;15.60;99.90
2861;DHT22;1438;50.922;6.704;2023-08-01T03:40:39;15.50;99.90
2861;DHT22;1438;50.922;6.704;2023-08-01T03:43:04;15.50;99.90
2861;DHT22;1438;50.922;6.704;2023-08-01T03:45:31;15.50;99.90
2861;DHT22;1438;50.922;6.704;2023-08-01T03:47:57;15.40;99.90
2861;DHT22;1438;50.922;6.704;2023-08-01T03:50:22;15.40;99.90
2861;DHT22;1438;50.922;6.704;2023-08-01T03:52:48;15.40;99.90
2861;DHT22;1438;50.922;6.704;2023-08-01T03:55:14;15.40;99.90
2861;DHT22;1438;50.922;6.704;2023-08-01T03:57:39;15.40;99.90
2861;DHT22;1438;50.922;6.704;2023-08-01T04:00:06;15.40;99.90
2861;DHT22;1438;50.922;6.704;2023-08-01T04:02:41;15.40;99.90
2861;DHT22;1438;50.922;6.704;2023-08-01T04:05:07;15.30;99.90
2861;DHT22;1438;50.922;6.704;2023-08-01T04:07:34;15.30;99.90
2861;DHT22;1438;50.922;6.704;2023-08-01T04:10:00;15.30;99.90
2861;DHT22;1438;50.922;6.704;2023-08-01T04:12:26;15.30;99.90
2861;DHT22;1438;50.922;6.704;2023-08-01T04:14:51;15.30;99.90
2861;DHT22;1438;50.922;6.704;2023-08-01T04:17:17;15.30;99.90
2861;DHT22;1438;50.922;6.704;2023-08-01T04:19:43;15.30;99.90
2861;DHT22;1438;50.922;6.704;2023-08-01T04:22:08;15.30;99.90
2861;DHT22;1438;50.922;6.704;2023-08-01T04:24:34;15.30;99.90
2861;DHT22;1438;50.922;6.704;2023-08-01T04:27:00;15.30;99.90
2861;DHT22;1438;50.922;6.704;2023-08-01T04:29:25;15.30;99.90
2861;DHT22;1438;50.922;6.704;2023-08-01T04:31:51;15.30;99.90
2861;DHT22;1438;50.922;6.704;2023-08-01T04:34:16;15.30;99.90
2861;DHT22;1438;50.922;6.704;2023-08-01T04:36:42;15.30;99.90
2861;DHT22;1438;50.922;6.704;2023-08-01T04:39:07;15.20;99.90
2861;DHT22;1438;50.922;6.704;2023-08-01T04:41:33;15.20;99.90
2861;DHT22;1438;50.922;6.704;2023-08-01T04:43:59;15.20;99.90
2861;DHT22;1438;50.922;6.704;2023-08-01T04:46:24;15.20;99.90
2861;DHT22;1438;50.922;6.704;2023-08-01T04:48:50;15.20;99.90
2861;DHT22;1438;50.922;6.704;2023-08-01T04:51:15;15.20;99.90
2861;DHT22;1438;50.922;6.704;2023-08-01T04:53:41;15.20;99.90
2861;DHT22;1438;50.922;6.704;2023-08-01T04:56:06;15.20;99.90
2861;DHT22;1438;50.922;6.704;2023-08-01T04:58:32;15.30;99.90
2861;DHT22;1438;50.922;6.704;2023-08-01T05:00:57;15.30;99.90
2861;DHT22;1438;50.922;6.704;2023-08-01T05:03:23;15.20;99.90
2861;DHT22;1438;50.922;6.704;2023-08-01T05:05:48;15.20;99.90
2861;DHT22;1438;50.922;6.704;2023-08-01T05:08:14;15.20;99.90
2861;DHT22;1438;50.922;6.704;2023-08-01T05:10:40;15.20;99.90
2861;DHT22;1438;50.922;6.704;2023-08-01T05:13:05;15.20;99.90
2861;DHT22;1438;50.922;6.704;2023-08-01T05:15:31;15.10;99.90
2861;DHT22;1438;50.922;6.704;2023-08-01T05:17:57;15.10;99.90
2861;DHT22;1438;50.922;6.704;2023-08-01T05:20:22;15.10;99.90
2861;DHT22;1438;50.922;6.704;2023-08-01T05:22:48;15.10;99.90
2861;DHT22;1438;50.922;6.704;2023-08-01T05:25:13;15.10;99.90
2861;DHT22;1438;50.922;6.704;2023-08-01T05:27:39;15.20;99.90
2861;DHT22;1438;50.922;6.704;2023-08-01T05:30:05;15.10;99.90
2861;DHT22;1438;50.922;6.704;2023-08-01T05:32:31;15.10;99.90
2861;DHT22;1438;50.922;6.704;2023-08-01T05:34:56;15.10;99.90
2861;DHT22;1438;50.922;6.704;2023-08-01T05:37:22;15.20;99.90
2861;DHT22;1438;50.922;6.704;2023-08-01T05:39:47;15.20;99.90
2861;DHT22;1438;50.922;6.704;2023-08-01T05:42:13;15.30;99.90
2861;DHT22;1438;50.922;6.704;2023-08-01T05:44:38;15.30;99.90
2861;DHT22;1438;50.922;6.704;2023-08-01T05:47:04;15.30;99.90
2861;DHT22;1438;50.922;6.704;2023-08-01T05:49:30;15.30;99.90
2861;DHT22;1438;50.922;6.704;2023-08-01T05:51:56;15.40;99.90
2861;DHT22;1438;50.922;6.704;2023-08-01T05:54:21;15.40;99.90
2861;DHT22;1438;50.922;6.704;2023-08-01T05:56:47;15.50;99.90
2861;DHT22;1438;50.922;6.704;2023-08-01T05:59:12;15.50;99.90
2861;DHT22;1438;50.922;6.704;2023-08-01T06:01:38;15.60;99.90
2861;DHT22;1438;50.922;6.704;2023-08-01T06:04:04;15.60;99.90
2861;DHT22;1438;50.922;6.704;2023-08-01T06:06:29;15.70;99.90
2861;DHT22;1438;50.922;6.704;2023-08-01T06:08:55;15.70;99.90
2861;DHT22;1438;50.922;6.704;2023-08-01T06:11:21;15.70;99.90
2861;DHT22;1438;50.922;6.704;2023-08-01T06:13:47;15.80;99.90
2861;DHT22;1438;50.922;6.704;2023-08-01T06:16:12;15.90;99.90
2861;DHT22;1438;50.922;6.704;2023-08-01T06:18:38;15.90;99.90
2861;DHT22;1438;50.922;6.704;2023-08-01T06:21:03;15.90;99.90
2861;DHT22;1438;50.922;6.704;2023-08-01T06:23:29;15.90;99.90
2861;DHT22;1438;50.922;6.704;2023-08-01T06:25:54;15.90;99.90
2861;DHT22;1438;50.922;6.704;2023-08-01T06:28:20;16.00;99.90
2861;DHT22;1438;50.922;6.704;2023-08-01T06:30:46;16.00;99.90
2861;DHT22;1438;50.922;6.704;2023-08-01T06:33:11;16.00;99.90
2861;DHT22;1438;50.922;6.704;2023-08-01T06:35:37;16.00;99.90
2861;DHT22;1438;50.922;6.704;2023-08-01T06:38:03;16.10;99.90
2861;DHT22;1438;50.922;6.704;2023-08-01T06:40:28;16.20;99.90
2861;DHT22;1438;50.922;6.704;2023-08-01T06:42:54;16.20;99.90
2861;DHT22;1438;50.922;6.704;2023-08-01T06:45:19;16.20;99.90
2861;DHT22;1438;50.922;6.704;2023-08-01T06:47:45;16.10;99.90
2861;DHT22;1438;50.922;6.704;2023-08-01T06:50:10;16.20;99.90
2861;DHT22;1438;50.922;6.704;2023-08-01T06:52:36;16.10;99.90
2861;DHT22;1438;50.922;6.704;2023-08-01T06:55:02;16.30;99.90
2861;DHT22;1438;50.922;6.704;2023-08-01T06:57:27;16.20;99.90
2861;DHT22;1438;50.922;6.704;2023-08-01T06:59:53;16.20;99.90
2861;DHT22;1438;50.922;6.704;2023-08-01T07:02:18;16.20;99.90
2861;DHT22;1438;50.922;6.704;2023-08-01T07:04:44;16.20;99.90
2861;DHT22;1438;50.922;6.704;2023-08-01T07:07:09;16.10;99.90
2861;DHT22;1438;50.922;6.704;2023-08-01T07:09:35;16.10;99.90
2861;DHT22;1438;50.922;6.704;2023-08-01T07:12:01;16.20;99.90
2861;DHT22;1438;50.922;6.704;2023-08-01T07:14:26;16.20;99.90
2861;DHT22;1438;50.922;6.704;2023-08-01T07:16:52;16.30;99.90
2861;DHT22;1438;50.922;6.704;2023-08-01T07:19:17;16.40;99.90
2861;DHT22;1438;50.922;6.704;2023-08-01T07:21:43;16.40;99.90
2861;DHT22;1438;50.922;6.704;2023-08-01T07:24:11;16.40;99.90
2861;DHT22;1438;50.922;6.704;2023-08-01T07:26:39;16.50;99.90
2861;DHT22;1438;50.922;6.704;2023-08-01T07:29:04;16.50;99.90
2861;DHT22;1438;50.922;6.704;2023-08-01T07:31:30;16.50;99.90
2861;DHT22;1438;50.922;6.704;2023-08-01T07:33:56;16.30;99.90
2861;DHT22;1438;50.922;6.704;2023-08-01T07:36:21;16.20;99.90
2861;DHT22;1438;50.922;6.704;2023-08-01T07:38:47;16.10;99.90
2861;DHT22;1438;50.922;6.704;2023-08-01T07:41:13;16.10;99.90
2861;DHT22;1438;50.922;6.704;2023-08-01T07:43:38;16.20;99.90
2861;DHT22;1438;50.922;6.704;2023-08-01T07:46:04;16.30;99.90
2861;DHT22;1438;50.922;6.704;2023-08-01T07:48:29;16.50;99.90
2861;DHT22;1438;50.922;6.704;2023-08-01T07:50:55;16.60;99.90
2861;DHT22;1438;50.922;6.704;2023-08-01T07:53:21;16.70;99.90
2861;DHT22;1438;50.922;6.704;2023-08-01T07:55:46;16.80;99.90
2861;DHT22;1438;50.922;6.704;2023-08-01T07:58:12;16.90;99.90
2861;DHT22;1438;50.922;6.704;2023-08-01T08:00:38;16.90;99.90
2861;DHT22;1438;50.922;6.704;2023-08-01T08:03:04;16.90;99.90
2861;DHT22;1438;50.922;6.704;2023-08-01T08:05:31;17.00;99.90
2861;DHT22;1438;50.922;6.704;2023-08-01T08:07:56;17.00;99.90
2861;DHT22;1438;50.922;6.704;2023-08-01T08:10:22;17.10;99.90
2861;DHT22;1438;50.922;6.704;2023-08-01T08:12:47;17.20;99.90
2861;DHT22;1438;50.922;6.704;2023-08-01T08:15:16;17.20;99.90
2861;DHT22;1438;50.922;6.704;2023-08-01T08:17:42;17.30;99.90
2861;DHT22;1438;50.922;6.704;2023-08-01T08:20:08;17.20;99.90
2861;DHT22;1438;50.922;6.704;2023-08-01T08:22:33;17.20;99.90
2861;DHT22;1438;50.922;6.704;2023-08-01T08:24:59;17.30;99.90
2861;DHT22;1438;50.922;6.704;2023-08-01T08:27:24;17.40;99.90
2861;DHT22;1438;50.922;6.704;2023-08-01T08:29:50;17.70;99.90
2861;DHT22;1438;50.922;6.704;2023-08-01T08:32:16;17.90;99.90
2861;DHT22;1438;50.922;6.704;2023-08-01T08:34:41;17.90;99.90
2861;DHT22;1438;50.922;6.704;2023-08-01T08:37:07;17.90;99.90
2861;DHT22;1438;50.922;6.704;2023-08-01T08:39:33;17.70;99.90
2861;DHT22;1438;50.922;6.704;2023-08-01T08:41:59;17.70;99.90
2861;DHT22;1438;50.922;6.704;2023-08-01T08:44:25;17.90;99.90
2861;DHT22;1438;50.922;6.704;2023-08-01T08:46:52;17.90;99.90
2861;DHT22;1438;50.922;6.704;2023-08-01T08:49:19;17.90;99.90
2861;DHT22;1438;50.922;6.704;2023-08-01T08:51:46;18.00;99.90
2861;DHT22;1438;50.922;6.704;2023-08-01T08:54:14;18.00;99.90
2861;DHT22;1438;50.922;6.704;2023-08-01T08:56:40;18.20;99.90
2861;DHT22;1438;50.922;6.704;2023-08-01T08:59:08;18.30;99.90
2861;DHT22;1438;50.922;6.704;2023-08-01T09:01:38;18.40;99.90
2861;DHT22;1438;50.922;6.704;2023-08-01T09:04:04;18.20;99.90
2861;DHT22;1438;50.922;6.704;2023-08-01T09:06:46;18.20;99.90
2861;DHT22;1438;50.922;6.704;2023-08-01T09:09:14;18.10;99.90
2861;DHT22;1438;50.922;6.704;2023-08-01T09:11:48;18.00;99.90
2861;DHT22;1438;50.922;6.704;2023-08-01T09:14:14;18.00;99.90
2861;DHT22;1438;50.922;6.704;2023-08-01T09:16:41;18.20;99.90
2861;DHT22;1438;50.922;6.704;2023-08-01T09:19:08;18.20;99.90
2861;DHT22;1438;50.922;6.704;2023-08-01T09:21:35;18.30;99.90
2861;DHT22;1438;50.922;6.704;2023-08-01T09:24:11;18.20;99.90
2861;DHT22;1438;50.922;6.704;2023-08-01T09:26:38;18.30;99.90
2861;DHT22;1438;50.922;6.704;2023-08-01T09:29:04;18.50;99.90
2861;DHT22;1438;50.922;6.704;2023-08-01T09:31:32;18.80;99.90
2861;DHT22;1438;50.922;6.704;2023-08-01T09:33:59;19.20;99.90
2861;DHT22;1438;50.922;6.704;2023-08-01T09:36:25;19.50;99.90
2861;DHT22;1438;50.922;6.704;2023-08-01T09:38:51;19.50;99.90
2861;DHT22;1438;50.922;6.704;2023-08-01T09:41:20;19.40;99.90
2861;DHT22;1438;50.922;6.704;2023-08-01T09:43:50;19.40;99.90
2861;DHT22;1438;50.922;6.704;2023-08-01T09:46:15;19.50;99.90
2861;DHT22;1438;50.922;6.704;2023-08-01T09:48:41;19.50;99.90
2861;DHT22;1438;50.922;6.704;2023-08-01T09:51:12;19.80;99.90
2861;DHT22;1438;50.922;6.704;2023-08-01T09:53:52;19.80;99.90
2861;DHT22;1438;50.922;6.704;2023-08-01T09:56:25;19.80;99.90
2861;DHT22;1438;50.922;6.704;2023-08-01T09:58:52;20.20;99.90
2861;DHT22;1438;50.922;6.704;2023-08-01T10:01:21;20.60;99.90
2861;DHT22;1438;50.922;6.704;2023-08-01T10:03:48;20.90;99.90
2861;DHT22;1438;50.922;6.704;2023-08-01T10:06:17;21.30;99.90
2861;DHT22;1438;50.922;6.704;2023-08-01T10:08:45;21.70;99.90
2861;DHT22;1438;50.922;6.704;2023-08-01T10:11:12;21.20;99.90
2861;DHT22;1438;50.922;6.704;2023-08-01T10:13:39;20.60;99.90
2861;DHT22;1438;50.922;6.704;2023-08-01T10:16:05;20.30;99.90
2861;DHT22;1438;50.922;6.704;2023-08-01T10:18:32;20.60;99.90
2861;DHT22;1438;50.922;6.704;2023-08-01T10:20:58;20.50;99.90
2861;DHT22;1438;50.922;6.704;2023-08-01T10:23:33;20.30;99.90
2861;DHT22;1438;50.922;6.704;2023-08-01T10:26:01;20.70;99.90
2861;DHT22;1438;50.922;6.704;2023-08-01T10:28:38;21.70;99.90
2861;DHT22;1438;50.922;6.704;2023-08-01T10:31:15;21.60;99.90
2861;DHT22;1438;50.922;6.704;2023-08-01T10:34:07;21.10;99.90
2861;DHT22;1438;50.922;6.704;2023-08-01T10:36:35;21.40;99.90
2861;DHT22;1438;50.922;6.704;2023-08-01T10:39:02;22.10;99.90
2861;DHT22;1438;50.922;6.704;2023-08-01T10:41:34;22.00;99.90
2861;DHT22;1438;50.922;6.704;2023-08-01T10:44:14;21.80;99.90
2861;DHT22;1438;50.922;6.704;2023-08-01T10:46:49;21.90;99.90
2861;DHT22;1438;50.922;6.704;2023-08-01T10:49:16;22.20;99.90
2861;DHT22;1438;50.922;6.704;2023-08-01T10:51:48;22.60;99.90
2861;DHT22;1438;50.922;6.704;2023-08-01T10:54:23;22.40;99.90
2861;DHT22;1438;50.922;6.704;2023-08-01T10:56:55;22.50;99.90
2861;DHT22;1438;50.922;6.704;2023-08-01T10:59:39;22.50;99.90
2861;DHT22;1438;50.922;6.704;2023-08-01T11:02:23;22.90;99.90
2861;DHT22;1438;50.922;6.704;2023-08-01T11:05:41;22.90;99.90
2861;DHT22;1438;50.922;6.704;2023-08-01T11:08:09;23.10;99.90
2861;DHT22;1438;50.922;6.704;2023-08-01T11:10:34;23.20;99.90
2861;DHT22;1438;50.922;6.704;2023-08-01T11:13:11;23.00;99.90
2861;DHT22;1438;50.922;6.704;2023-08-01T11:15:37;23.30;99.90
2861;DHT22;1438;50.922;6.704;2023-08-01T11:18:04;23.40;99.90
2861;DHT22;1438;50.922;6.704;2023-08-01T11:20:29;23.00;99.90
2861;DHT22;1438;50.922;6.704;2023-08-01T11:22:57;22.60;99.90
2861;DHT22;1438;50.922;6.704;2023-08-01T11:25:37;22.80;99.90
2861;DHT22;1438;50.922;6.704;2023-08-01T11:28:06;23.30;99.90
2861;DHT22;1438;50.922;6.704;2023-08-01T11:30:33;23.90;99.90
2861;DHT22;1438;50.922;6.704;2023-08-01T11:32:59;24.00;99.90
2861;DHT22;1438;50.922;6.704;2023-08-01T11:35:25;23.80;99.90
2861;DHT22;1438;50.922;6.704;2023-08-01T11:37:51;23.70;99.90
2861;DHT22;1438;50.922;6.704;2023-08-01T11:40:17;23.50;99.90
2861;DHT22;1438;50.922;6.704;2023-08-01T11:42:48;22.90;99.90
2861;DHT22;1438;50.922;6.704;2023-08-01T11:45:14;22.00;99.90
2861;DHT22;1438;50.922;6.704;2023-08-01T11:47:47;21.80;99.90
2861;DHT22;1438;50.922;6.704;2023-08-01T11:50:14;21.60;99.90
2861;DHT22;1438;50.922;6.704;2023-08-01T11:52:40;21.50;99.90
2861;DHT22;1438;50.922;6.704;2023-08-01T11:55:06;21.60;99.90
2861;DHT22;1438;50.922;6.704;2023-08-01T11:57:31;21.60;99.90
2861;DHT22;1438;50.922;6.704;2023-08-01T11:59:57;21.70;99.90
2861;DHT22;1438;50.922;6.704;2023-08-01T12:02:26;21.80;99.90
2861;DHT22;1438;50.922;6.704;2023-08-01T12:04:53;22.00;99.90
2861;DHT22;1438;50.922;6.704;2023-08-01T12:07:19;22.00;99.90
2861;DHT22;1438;50.922;6.704;2023-08-01T12:09:58;22.00;99.90
2861;DHT22;1438;50.922;6.704;2023-08-01T12:12:26;22.80;99.90
2861;DHT22;1438;50.922;6.704;2023-08-01T12:14:52;22.90;99.90
2861;DHT22;1438;50.922;6.704;2023-08-01T12:17:19;22.90;99.90
2861;DHT22;1438;50.922;6.704;2023-08-01T12:19:44;22.90;99.90
2861;DHT22;1438;50.922;6.704;2023-08-01T12:22:11;22.30;99.90
2861;DHT22;1438;50.922;6.704;2023-08-01T12:24:37;21.20;99.90
2861;DHT22;1438;50.922;6.704;2023-08-01T12:27:06;19.40;99.90
2861;DHT22;1438;50.922;6.704;2023-08-01T12:29:31;18.10;99.90
2861;DHT22;1438;50.922;6.704;2023-08-01T12:31:57;17.80;99.90
2861;DHT22;1438;50.922;6.704;2023-08-01T12:34:22;17.90;99.90
2861;DHT22;1438;50.922;6.704;2023-08-01T12:36:48;17.80;99.90
2861;DHT22;1438;50.922;6.704;2023-08-01T12:39:13;17.90;99.90
2861;DHT22;1438;50.922;6.704;2023-08-01T12:41:39;17.90;99.90
2861;DHT22;1438;50.922;6.704;2023-08-01T12:44:05;18.10;99.90
2861;DHT22;1438;50.922;6.704;2023-08-01T12:46:31;18.30;99.90
2861;DHT22;1438;50.922;6.704;2023-08-01T12:48:56;18.50;99.90
2861;DHT22;1438;50.922;6.704;2023-08-01T12:51:25;18.90;99.90
2861;DHT22;1438;50.922;6.704;2023-08-01T12:53:50;19.10;99.90
2861;DHT22;1438;50.922;6.704;2023-08-01T12:56:16;19.40;99.90
2861;DHT22;1438;50.922;6.704;2023-08-01T12:58:41;19.60;99.90
2861;DHT22;1438;50.922;6.704;2023-08-01T13:01:07;19.70;99.90
2861;DHT22;1438;50.922;6.704;2023-08-01T13:03:33;19.90;99.90
2861;DHT22;1438;50.922;6.704;2023-08-01T13:05:58;20.10;99.90
2861;DHT22;1438;50.922;6.704;2023-08-01T13:08:24;20.70;99.90
2861;DHT22;1438;50.922;6.704;2023-08-01T13:10:50;20.70;99.90
2861;DHT22;1438;50.922;6.704;2023-08-01T13:13:16;20.80;99.90
2861;DHT22;1438;50.922;6.704;2023-08-01T13:15:42;20.90;99.90
2861;DHT22;1438;50.922;6.704;2023-08-01T13:18:09;21.10;99.90
2861;DHT22;1438;50.922;6.704;2023-08-01T13:20:34;21.20;99.90
2861;DHT22;1438;50.922;6.704;2023-08-01T13:23:01;21.50;99.90
2861;DHT22;1438;50.922;6.704;2023-08-01T13:25:27;21.90;99.90
2861;DHT22;1438;50.922;6.704;2023-08-01T13:27:53;22.30;99.90
2861;DHT22;1438;50.922;6.704;2023-08-01T13:30:19;22.50;99.90
2861;DHT22;1438;50.922;6.704;2023-08-01T13:32:45;22.50;99.90
2861;DHT22;1438;50.922;6.704;2023-08-01T13:35:11;22.50;99.90
2861;DHT22;1438;50.922;6.704;2023-08-01T13:37:37;22.30;99.90
2861;DHT22;1438;50.922;6.704;2023-08-01T13:40:03;22.20;99.90
2861;DHT22;1438;50.922;6.704;2023-08-01T13:42:29;22.30;99.90
2861;DHT22;1438;50.922;6.704;2023-08-01T13:44:55;22.30;99.90
2861;DHT22;1438;50.922;6.704;2023-08-01T13:47:21;22.20;99.90
2861;DHT22;1438;50.922;6.704;2023-08-01T13:49:47;22.10;99.90
2861;DHT22;1438;50.922;6.704;2023-08-01T13:52:12;22.10;99.90
2861;DHT22;1438;50.922;6.704;2023-08-01T13:54:38;21.80;99.90
2861;DHT22;1438;50.922;6.704;2023-08-01T13:57:04;21.30;99.90
2861;DHT22;1438;50.922;6.704;2023-08-01T13:59:29;21.00;99.90
2861;DHT22;1438;50.922;6.704;2023-08-01T14:01:56;20.80;99.90
2861;DHT22;1438;50.922;6.704;2023-08-01T14:04:22;20.50;99.90
2861;DHT22;1438;50.922;6.704;2023-08-01T14:06:48;20.00;99.90
2861;DHT22;1438;50.922;6.704;2023-08-01T14:09:13;19.60;99.90
2861;DHT22;1438;50.922;6.704;2023-08-01T14:11:39;19.20;99.90
2861;DHT22;1438;50.922;6.704;2023-08-01T14:14:05;19.10;99.90
2861;DHT22;1438;50.922;6.704;2023-08-01T14:16:30;18.90;99.90
2861;DHT22;1438;50.922;6.704;2023-08-01T14:18:57;19.00;99.90
2861;DHT22;1438;50.922;6.704;2023-08-01T14:21:22;19.10;99.90
2861;DHT22;1438;50.922;6.704;2023-08-01T14:23:48;19.30;99.90
2861;DHT22;1438;50.922;6.704;2023-08-01T14:26:13;19.50;99.90
2861;DHT22;1438;50.922;6.704;2023-08-01T14:28:39;19.70;99.90
2861;DHT22;1438;50.922;6.704;2023-08-01T14:31:05;19.90;99.90
2861;DHT22;1438;50.922;6.704;2023-08-01T14:33:31;20.00;99.90
2861;DHT22;1438;50.922;6.704;2023-08-01T14:35:57;19.90;99.90
2861;DHT22;1438;50.922;6.704;2023-08-01T14:38:22;20.10;99.90
2861;DHT22;1438;50.922;6.704;2023-08-01T14:40:48;20.20;99.90
2861;DHT22;1438;50.922;6.704;2023-08-01T14:43:14;20.20;99.90
2861;DHT22;1438;50.922;6.704;2023-08-01T14:45:40;20.00;99.90
2861;DHT22;1438;50.922;6.704;2023-08-01T14:48:06;20.00;99.90
2861;DHT22;1438;50.922;6.704;2023-08-01T14:50:32;19.90;99.90
2861;DHT22;1438;50.922;6.704;2023-08-01T14:52:58;19.90;99.90
2861;DHT22;1438;50.922;6.704;2023-08-01T14:55:23;20.00;99.90
2861;DHT22;1438;50.922;6.704;2023-08-01T14:57:49;20.20;99.90
2861;DHT22;1438;50.922;6.704;2023-08-01T15:00:15;20.40;99.90
2861;DHT22;1438;50.922;6.704;2023-08-01T15:02:41;20.50;99.90
2861;DHT22;1438;50.922;6.704;2023-08-01T15:05:07;20.30;99.90
2861;DHT22;1438;50.922;6.704;2023-08-01T15:07:33;20.10;99.90
2861;DHT22;1438;50.922;6.704;2023-08-01T15:09:58;20.00;99.90
2861;DHT22;1438;50.922;6.704;2023-08-01T15:12:24;19.90;99.90
2861;DHT22;1438;50.922;6.704;2023-08-01T15:14:54;19.90;99.90
2861;DHT22;1438;50.922;6.704;2023-08-01T15:17:20;20.00;99.90
2861;DHT22;1438;50.922;6.704;2023-08-01T15:19:46;20.00;99.90
2861;DHT22;1438;50.922;6.704;2023-08-01T15:22:21;20.10;99.90
2861;DHT22;1438;50.922;6.704;2023-08-01T15:24:47;20.00;99.90
2861;DHT22;1438;50.922;6.704;2023-08-01T15:27:13;20.10;99.90
2861;DHT22;1438;50.922;6.704;2023-08-01T15:29:39;20.00;99.90
2861;DHT22;1438;50.922;6.704;2023-08-01T15:32:05;19.90;99.90
2861;DHT22;1438;50.922;6.704;2023-08-01T15:34:31;19.80;99.90
2861;DHT22;1438;50.922;6.704;2023-08-01T15:36:57;19.70;99.90
2861;DHT22;1438;50.922;6.704;2023-08-01T15:39:23;19.70;99.90
2861;DHT22;1438;50.922;6.704;2023-08-01T15:41:48;19.70;99.90
2861;DHT22;1438;50.922;6.704;2023-08-01T15:44:14;19.70;99.90
2861;DHT22;1438;50.922;6.704;2023-08-01T15:46:40;19.70;99.90
2861;DHT22;1438;50.922;6.704;2023-08-01T15:49:06;19.70;99.90
2861;DHT22;1438;50.922;6.704;2023-08-01T15:51:32;19.70;99.90
2861;DHT22;1438;50.922;6.704;2023-08-01T15:53:58;19.70;99.90
2861;DHT22;1438;50.922;6.704;2023-08-01T15:56:23;19.60;99.90
2861;DHT22;1438;50.922;6.704;2023-08-01T15:58:49;19.60;99.90